sensor_id;sensor_type;location;lat;lon;timestamp;temperature;humidity
16269;DHT22;8242;50.434;8.496;2023-02-15T00:00:08;16.30;93.30
16269;DHT22;8242;50.434;8.496;2023-02-15T00:02:35;16.30;93.20
16269;DHT22;8242;50.434;8.496;2023-02-15T00:05:02;16.40;93.30
16269;DHT22;8242;50.434;8.496;2023-02-15T00:07:29;16.50;93.30
16269;DHT22;8242;50.434;8.496;2023-02-15T00:09:55;16.50;93.20
16269;DHT22;8242;50.434;8.496;2023-02-15T00:12:22;16.50;93.10
16269;DHT22;8242;50.434;8.496;2023-02-15T00:14:50;16.60;93.10
16269;DHT22;8242;50.434;8.496;2023-02-15T00:17:17;16.60;93.00
16269;DHT22;8242;50.434;8.496;2023-02-15T00:19:43;16.60;93.00
16269;DHT22;8242;50.434;8.496;2023-02-15T00:22:10;16.60;93.00
16269;DHT22;8242;50.434;8.496;2023-02-15T00:24:37;16.60;93.00
16269;DHT22;8242;50.434;8.496;2023-02-15T00:27:03;16.60;93.00
16269;DHT22;8242;50.434;8.496;2023-02-15T00:29:30;16.50;93.00
16269;DHT22;8242;50.434;8.496;2023-02-15T00:31:58;16.50;93.00
16269;DHT22;8242;50.434;8.496;2023-02-15T00:34:26;16.50;93.10
16269;DHT22;8242;50.434;8.496;2023-02-15T00:36:54;16.50;93.10
16269;DHT22;8242;50.434;8.496;2023-02-15T00:39:21;16.40;93.10
16269;DHT22;8242;50.434;8.496;2023-02-15T00:41:49;16.40;93.10
16269;DHT22;8242;50.434;8.496;2023-02-15T00:44:16;16.30;93.10
16269;DHT22;8242;50.434;8.496;2023-02-15T00:46:43;16.30;93.20
16269;DHT22;8242;50.434;8.496;2023-02-15T00:49:11;16.30;93.20
16269;DHT22;8242;50.434;8.496;2023-02-15T00:51:37;16.30;93.30
16269;DHT22;8242;50.434;8.496;2023-02-15T00:54:04;16.20;93.20
16269;DHT22;8242;50.434;8.496;2023-02-15T00:56:31;16.20;93.20
16269;DHT22;8242;50.434;8.496;2023-02-15T00:58:58;16.20;93.30
16269;DHT22;8242;50.434;8.496;2023-02-15T01:01:24;16.10;93.20
16269;DHT22;8242;50.434;8.496;2023-02-15T01:03:51;16.10;93.20
16269;DHT22;8242;50.434;8.496;2023-02-15T01:06:19;16.10;93.20
16269;DHT22;8242;50.434;8.496;2023-02-15T01:08:47;16.10;93.20
16269;DHT22;8242;50.434;8.496;2023-02-15T01:11:15;16.30;93.10
16269;DHT22;8242;50.434;8.496;2023-02-15T01:13:47;16.40;92.90
16269;DHT22;8242;50.434;8.496;2023-02-15T01:16:14;16.60;92.70
16269;DHT22;8242;50.434;8.496;2023-02-15T01:18:41;16.80;92.60
16269;DHT22;8242;50.434;8.496;2023-02-15T01:21:12;16.90;92.80
16269;DHT22;8242;50.434;8.496;2023-02-15T01:23:40;17.00;92.70
16269;DHT22;8242;50.434;8.496;2023-02-15T01:26:07;17.10;92.60
16269;DHT22;8242;50.434;8.496;2023-02-15T01:28:34;17.10;92.60
16269;DHT22;8242;50.434;8.496;2023-02-15T01:31:05;17.10;92.80
16269;DHT22;8242;50.434;8.496;2023-02-15T01:33:32;17.00;92.70
16269;DHT22;8242;50.434;8.496;2023-02-15T01:35:58;17.00;92.70
16269;DHT22;8242;50.434;8.496;2023-02-15T01:38:25;16.90;92.70
16269;DHT22;8242;50.434;8.496;2023-02-15T01:40:54;16.80;92.70
16269;DHT22;8242;50.434;8.496;2023-02-15T01:43:46;16.80;92.90
16269;DHT22;8242;50.434;8.496;2023-02-15T01:46:14;16.70;92.90
16269;DHT22;8242;50.434;8.496;2023-02-15T01:48:44;16.70;93.40
16269;DHT22;8242;50.434;8.496;2023-02-15T01:51:14;16.60;93.20
16269;DHT22;8242;50.434;8.496;2023-02-15T01:53:45;16.60;93.20
16269;DHT22;8242;50.434;8.496;2023-02-15T01:56:19;16.60;93.50
16269;DHT22;8242;50.434;8.496;2023-02-15T01:58:46;16.50;93.20
16269;DHT22;8242;50.434;8.496;2023-02-15T02:01:14;16.50;93.30
16269;DHT22;8242;50.434;8.496;2023-02-15T02:03:49;16.40;93.30
16269;DHT22;8242;50.434;8.496;2023-02-15T02:06:17;16.40;93.50
16269;DHT22;8242;50.434;8.496;2023-02-15T02:08:44;16.40;93.60
16269;DHT22;8242;50.434;8.496;2023-02-15T02:11:13;16.30;93.60
16269;DHT22;8242;50.434;8.496;2023-02-15T02:13:42;16.30;93.80
16269;DHT22;8242;50.434;8.496;2023-02-15T02:16:13;16.30;94.00
16269;DHT22;8242;50.434;8.496;2023-02-15T02:18:47;16.30;94.00
16269;DHT22;8242;50.434;8.496;2023-02-15T02:21:36;16.20;94.00
16269;DHT22;8242;50.434;8.496;2023-02-15T02:24:28;16.20;94.40
16269;DHT22;8242;50.434;8.496;2023-02-15T02:27:24;16.20;94.40
16269;DHT22;8242;50.434;8.496;2023-02-15T02:33:20;16.40;94.00
16269;DHT22;8242;50.434;8.496;2023-02-15T02:35:57;16.50;93.80
16269;DHT22;8242;50.434;8.496;2023-02-15T02:38:35;16.70;93.50
16269;DHT22;8242;50.434;8.496;2023-02-15T02:41:10;17.00;93.20
16269;DHT22;8242;50.434;8.496;2023-02-15T02:43:46;17.10;93.00
16269;DHT22;8242;50.434;8.496;2023-02-15T02:46:20;17.10;92.80
16269;DHT22;8242;50.434;8.496;2023-02-15T02:48:50;17.10;92.80
16269;DHT22;8242;50.434;8.496;2023-02-15T02:51:17;17.00;92.90
16269;DHT22;8242;50.434;8.496;2023-02-15T02:53:48;17.00;93.00
16269;DHT22;8242;50.434;8.496;2023-02-15T02:56:21;16.90;93.00
16269;DHT22;8242;50.434;8.496;2023-02-15T02:58:51;16.80;93.00
16269;DHT22;8242;50.434;8.496;2023-02-15T03:01:23;16.70;93.00
16269;DHT22;8242;50.434;8.496;2023-02-15T03:03:55;16.70;93.00
16269;DHT22;8242;50.434;8.496;2023-02-15T03:06:28;16.60;93.10
16269;DHT22;8242;50.434;8.496;2023-02-15T03:09:00;16.60;93.10
16269;DHT22;8242;50.434;8.496;2023-02-15T03:11:28;16.60;93.20
16269;DHT22;8242;50.434;8.496;2023-02-15T03:13:55;16.50;93.20
16269;DHT22;8242;50.434;8.496;2023-02-15T03:16:21;16.40;93.20
16269;DHT22;8242;50.434;8.496;2023-02-15T03:18:59;16.40;93.20
16269;DHT22;8242;50.434;8.496;2023-02-15T03:21:32;16.40;93.30
16269;DHT22;8242;50.434;8.496;2023-02-15T03:24:01;16.40;93.30
16269;DHT22;8242;50.434;8.496;2023-02-15T03:26:30;16.30;93.30
16269;DHT22;8242;50.434;8.496;2023-02-15T03:28:59;16.30;93.40
16269;DHT22;8242;50.434;8.496;2023-02-15T03:31:31;16.20;93.30
16269;DHT22;8242;50.434;8.496;2023-02-15T03:34:02;16.20;93.40
16269;DHT22;8242;50.434;8.496;2023-02-15T03:36:36;16.20;93.40
16269;DHT22;8242;50.434;8.496;2023-02-15T03:39:09;16.10;93.40
16269;DHT22;8242;50.434;8.496;2023-02-15T03:41:42;16.10;93.40
16269;DHT22;8242;50.434;8.496;2023-02-15T03:44:15;16.10;93.40
16269;DHT22;8242;50.434;8.496;2023-02-15T03:46:45;16.10;93.40
16269;DHT22;8242;50.434;8.496;2023-02-15T03:49:18;16.20;93.30
16269;DHT22;8242;50.434;8.496;2023-02-15T03:51:48;16.30;93.20
16269;DHT22;8242;50.434;8.496;2023-02-15T03:54:18;16.50;93.00
16269;DHT22;8242;50.434;8.496;2023-02-15T03:57:04;16.70;92.90
16269;DHT22;8242;50.434;8.496;2023-02-15T03:59:48;16.90;92.60
16269;DHT22;8242;50.434;8.496;2023-02-15T04:03:11;17.00;92.40
16269;DHT22;8242;50.434;8.496;2023-02-15T04:05:40;17.10;92.40
16269;DHT22;8242;50.434;8.496;2023-02-15T04:08:07;17.10;92.40
16269;DHT22;8242;50.434;8.496;2023-02-15T04:10:34;17.00;92.50
16269;DHT22;8242;50.434;8.496;2023-02-15T04:13:18;17.00;92.60
16269;DHT22;8242;50.434;8.496;2023-02-15T04:15:44;16.90;92.70
16269;DHT22;8242;50.434;8.496;2023-02-15T04:18:29;16.90;92.80
16269;DHT22;8242;50.434;8.496;2023-02-15T04:21:15;16.80;92.70
16269;DHT22;8242;50.434;8.496;2023-02-15T04:23:59;16.70;92.70
16269;DHT22;8242;50.434;8.496;2023-02-15T04:26:43;16.70;92.80
16269;DHT22;8242;50.434;8.496;2023-02-15T04:29:10;16.60;92.80
16269;DHT22;8242;50.434;8.496;2023-02-15T04:31:36;16.60;92.80
16269;DHT22;8242;50.434;8.496;2023-02-15T04:34:03;16.60;92.80
16269;DHT22;8242;50.434;8.496;2023-02-15T04:36:31;16.50;92.90
16269;DHT22;8242;50.434;8.496;2023-02-15T04:38:58;16.50;92.90
16269;DHT22;8242;50.434;8.496;2023-02-15T04:41:24;16.40;93.20
16269;DHT22;8242;50.434;8.496;2023-02-15T04:43:51;16.40;93.20
16269;DHT22;8242;50.434;8.496;2023-02-15T04:46:18;16.40;93.20
16269;DHT22;8242;50.434;8.496;2023-02-15T04:48:44;16.30;93.20
16269;DHT22;8242;50.434;8.496;2023-02-15T04:51:11;16.30;93.20
16269;DHT22;8242;50.434;8.496;2023-02-15T04:53:39;16.30;93.20
16269;DHT22;8242;50.434;8.496;2023-02-15T04:56:06;16.20;93.10
16269;DHT22;8242;50.434;8.496;2023-02-15T04:58:33;16.10;93.00
16269;DHT22;8242;50.434;8.496;2023-02-15T05:01:00;16.10;93.10
16269;DHT22;8242;50.434;8.496;2023-02-15T05:03:27;16.10;93.10
16269;DHT22;8242;50.434;8.496;2023-02-15T05:05:54;16.10;93.10
16269;DHT22;8242;50.434;8.496;2023-02-15T05:08:20;16.10;93.10
16269;DHT22;8242;50.434;8.496;2023-02-15T05:10:49;16.10;93.10
16269;DHT22;8242;50.434;8.496;2023-02-15T05:13:15;16.00;93.10
16269;DHT22;8242;50.434;8.496;2023-02-15T05:15:47;16.00;93.10
16269;DHT22;8242;50.434;8.496;2023-02-15T05:18:14;16.00;93.10
16269;DHT22;8242;50.434;8.496;2023-02-15T05:20:41;16.10;93.10
16269;DHT22;8242;50.434;8.496;2023-02-15T05:23:08;16.10;93.10
16269;DHT22;8242;50.434;8.496;2023-02-15T05:25:34;16.10;93.10
16269;DHT22;8242;50.434;8.496;2023-02-15T05:28:21;16.10;93.10
16269;DHT22;8242;50.434;8.496;2023-02-15T05:30:49;16.10;93.10
16269;DHT22;8242;50.434;8.496;2023-02-15T05:33:16;16.10;93.10
16269;DHT22;8242;50.434;8.496;2023-02-15T05:35:43;16.10;93.10
16269;DHT22;8242;50.434;8.496;2023-02-15T05:38:10;16.10;93.10
16269;DHT22;8242;50.434;8.496;2023-02-15T05:40:36;16.10;93.10
16269;DHT22;8242;50.434;8.496;2023-02-15T05:43:03;16.10;93.10
16269;DHT22;8242;50.434;8.496;2023-02-15T05:45:31;16.10;93.10
16269;DHT22;8242;50.434;8.496;2023-02-15T05:47:58;16.00;93.10
16269;DHT22;8242;50.434;8.496;2023-02-15T05:50:24;16.00;93.20
16269;DHT22;8242;50.434;8.496;2023-02-15T05:52:51;16.00;93.50
16269;DHT22;8242;50.434;8.496;2023-02-15T05:55:18;16.00;93.60
16269;DHT22;8242;50.434;8.496;2023-02-15T05:57:45;16.00;93.60
16269;DHT22;8242;50.434;8.496;2023-02-15T06:00:13;15.90;93.90
16269;DHT22;8242;50.434;8.496;2023-02-15T06:02:42;15.90;94.40
16269;DHT22;8242;50.434;8.496;2023-02-15T06:05:08;15.90;94.20
16269;DHT22;8242;50.434;8.496;2023-02-15T06:07:35;15.90;94.10
16269;DHT22;8242;50.434;8.496;2023-02-15T06:10:02;15.90;93.80
16269;DHT22;8242;50.434;8.496;2023-02-15T06:12:29;15.90;93.80
16269;DHT22;8242;50.434;8.496;2023-02-15T06:14:56;15.80;93.70
16269;DHT22;8242;50.434;8.496;2023-02-15T06:17:22;15.90;94.30
16269;DHT22;8242;50.434;8.496;2023-02-15T06:19:50;15.90;94.00
16269;DHT22;8242;50.434;8.496;2023-02-15T06:22:17;16.00;96.00
16269;DHT22;8242;50.434;8.496;2023-02-15T06:24:43;16.00;96.40
16269;DHT22;8242;50.434;8.496;2023-02-15T06:27:10;16.10;96.30
16269;DHT22;8242;50.434;8.496;2023-02-15T06:29:37;16.10;96.10
16269;DHT22;8242;50.434;8.496;2023-02-15T06:32:04;16.20;95.90
16269;DHT22;8242;50.434;8.496;2023-02-15T06:34:31;16.20;95.70
16269;DHT22;8242;50.434;8.496;2023-02-15T06:36:59;16.20;95.60
16269;DHT22;8242;50.434;8.496;2023-02-15T06:39:25;16.20;95.50
16269;DHT22;8242;50.434;8.496;2023-02-15T06:41:52;16.20;95.40
16269;DHT22;8242;50.434;8.496;2023-02-15T06:44:19;16.20;95.00
16269;DHT22;8242;50.434;8.496;2023-02-15T06:46:45;16.20;94.80
16269;DHT22;8242;50.434;8.496;2023-02-15T06:49:12;16.20;95.10
16269;DHT22;8242;50.434;8.496;2023-02-15T06:51:39;16.20;95.90
16269;DHT22;8242;50.434;8.496;2023-02-15T06:54:07;16.10;96.60
16269;DHT22;8242;50.434;8.496;2023-02-15T06:56:33;16.20;96.00
16269;DHT22;8242;50.434;8.496;2023-02-15T06:59:00;16.10;95.70
16269;DHT22;8242;50.434;8.496;2023-02-15T07:01:27;16.10;95.40
16269;DHT22;8242;50.434;8.496;2023-02-15T07:03:54;16.00;95.30
16269;DHT22;8242;50.434;8.496;2023-02-15T07:06:21;16.00;95.00
16269;DHT22;8242;50.434;8.496;2023-02-15T07:08:47;16.00;94.60
16269;DHT22;8242;50.434;8.496;2023-02-15T07:11:16;15.90;94.40
16269;DHT22;8242;50.434;8.496;2023-02-15T07:14:00;15.90;94.20
16269;DHT22;8242;50.434;8.496;2023-02-15T07:16:27;15.90;94.30
16269;DHT22;8242;50.434;8.496;2023-02-15T07:18:53;15.90;94.20
16269;DHT22;8242;50.434;8.496;2023-02-15T07:21:20;16.10;94.90
16269;DHT22;8242;50.434;8.496;2023-02-15T07:23:47;16.30;94.40
16269;DHT22;8242;50.434;8.496;2023-02-15T07:26:13;16.40;94.00
16269;DHT22;8242;50.434;8.496;2023-02-15T07:28:41;16.50;93.80
16269;DHT22;8242;50.434;8.496;2023-02-15T07:31:08;16.70;93.70
16269;DHT22;8242;50.434;8.496;2023-02-15T07:33:35;16.70;93.50
16269;DHT22;8242;50.434;8.496;2023-02-15T07:36:03;16.70;93.40
16269;DHT22;8242;50.434;8.496;2023-02-15T07:38:31;16.70;93.40
16269;DHT22;8242;50.434;8.496;2023-02-15T07:40:59;16.70;93.40
16269;DHT22;8242;50.434;8.496;2023-02-15T07:43:26;16.60;93.40
16269;DHT22;8242;50.434;8.496;2023-02-15T07:45:54;16.50;93.30
16269;DHT22;8242;50.434;8.496;2023-02-15T07:48:20;16.50;93.30
16269;DHT22;8242;50.434;8.496;2023-02-15T07:50:47;16.50;93.30
16269;DHT22;8242;50.434;8.496;2023-02-15T07:53:14;16.40;93.30
16269;DHT22;8242;50.434;8.496;2023-02-15T07:55:41;16.40;93.30
16269;DHT22;8242;50.434;8.496;2023-02-15T07:58:07;16.30;93.20
16269;DHT22;8242;50.434;8.496;2023-02-15T08:00:34;16.30;93.20
16269;DHT22;8242;50.434;8.496;2023-02-15T08:03:24;16.30;93.20
16269;DHT22;8242;50.434;8.496;2023-02-15T08:05:55;16.20;93.10
16269;DHT22;8242;50.434;8.496;2023-02-15T08:08:22;16.10;93.10
16269;DHT22;8242;50.434;8.496;2023-02-15T08:10:59;16.10;93.10
16269;DHT22;8242;50.434;8.496;2023-02-15T08:13:44;16.10;93.10
16269;DHT22;8242;50.434;8.496;2023-02-15T08:16:22;16.10;93.10
16269;DHT22;8242;50.434;8.496;2023-02-15T08:18:50;16.00;93.00
16269;DHT22;8242;50.434;8.496;2023-02-15T08:21:17;16.00;93.00
16269;DHT22;8242;50.434;8.496;2023-02-15T08:23:44;16.00;93.00
16269;DHT22;8242;50.434;8.496;2023-02-15T08:26:11;16.00;93.00
16269;DHT22;8242;50.434;8.496;2023-02-15T08:28:37;16.00;92.90
16269;DHT22;8242;50.434;8.496;2023-02-15T08:31:05;16.10;92.80
16269;DHT22;8242;50.434;8.496;2023-02-15T08:33:32;16.30;92.90
16269;DHT22;8242;50.434;8.496;2023-02-15T08:36:04;16.50;93.10
16269;DHT22;8242;50.434;8.496;2023-02-15T08:38:31;16.80;93.00
16269;DHT22;8242;50.434;8.496;2023-02-15T08:40:58;17.00;92.80
16269;DHT22;8242;50.434;8.496;2023-02-15T08:43:24;17.20;92.70
16269;DHT22;8242;50.434;8.496;2023-02-15T08:45:51;17.30;92.60
16269;DHT22;8242;50.434;8.496;2023-02-15T08:48:18;17.30;92.60
16269;DHT22;8242;50.434;8.496;2023-02-15T08:50:44;17.20;92.50
16269;DHT22;8242;50.434;8.496;2023-02-15T08:53:12;17.20;92.60
16269;DHT22;8242;50.434;8.496;2023-02-15T08:55:39;17.10;92.60
16269;DHT22;8242;50.434;8.496;2023-02-15T08:58:06;16.90;91.60
16269;DHT22;8242;50.434;8.496;2023-02-15T09:00:33;16.60;92.20
16269;DHT22;8242;50.434;8.496;2023-02-15T09:02:59;16.50;92.30
16269;DHT22;8242;50.434;8.496;2023-02-15T09:05:26;16.40;92.50
16269;DHT22;8242;50.434;8.496;2023-02-15T09:07:53;16.40;93.00
16269;DHT22;8242;50.434;8.496;2023-02-15T09:10:21;16.30;93.30
16269;DHT22;8242;50.434;8.496;2023-02-15T09:12:47;16.40;93.30
16269;DHT22;8242;50.434;8.496;2023-02-15T09:15:15;16.30;93.20
16269;DHT22;8242;50.434;8.496;2023-02-15T09:17:42;16.30;93.20
16269;DHT22;8242;50.434;8.496;2023-02-15T09:20:09;16.20;93.10
16269;DHT22;8242;50.434;8.496;2023-02-15T09:22:36;16.20;93.00
16269;DHT22;8242;50.434;8.496;2023-02-15T09:25:03;16.20;93.00
16269;DHT22;8242;50.434;8.496;2023-02-15T09:27:31;16.20;93.00
16269;DHT22;8242;50.434;8.496;2023-02-15T09:29:58;16.20;92.90
16269;DHT22;8242;50.434;8.496;2023-02-15T09:32:24;16.20;92.90
16269;DHT22;8242;50.434;8.496;2023-02-15T09:34:51;16.10;92.90
16269;DHT22;8242;50.434;8.496;2023-02-15T09:37:18;16.10;92.90
16269;DHT22;8242;50.434;8.496;2023-02-15T09:39:44;16.10;93.10
16269;DHT22;8242;50.434;8.496;2023-02-15T09:42:24;16.10;92.90
16269;DHT22;8242;50.434;8.496;2023-02-15T09:45:12;16.00;92.90
16269;DHT22;8242;50.434;8.496;2023-02-15T09:48:03;16.00;92.80
16269;DHT22;8242;50.434;8.496;2023-02-15T09:50:40;16.00;92.80
16269;DHT22;8242;50.434;8.496;2023-02-15T09:53:29;16.00;92.80
16269;DHT22;8242;50.434;8.496;2023-02-15T09:56:04;16.10;92.70
16269;DHT22;8242;50.434;8.496;2023-02-15T09:58:40;16.30;92.50
16269;DHT22;8242;50.434;8.496;2023-02-15T10:01:17;16.50;92.30
16269;DHT22;8242;50.434;8.496;2023-02-15T10:03:56;16.60;92.10
16269;DHT22;8242;50.434;8.496;2023-02-15T10:06:32;16.80;92.10
16269;DHT22;8242;50.434;8.496;2023-02-15T10:09:15;16.80;92.00
16269;DHT22;8242;50.434;8.496;2023-02-15T10:12:01;16.80;92.10
16269;DHT22;8242;50.434;8.496;2023-02-15T10:14:42;16.70;92.10
16269;DHT22;8242;50.434;8.496;2023-02-15T10:17:24;16.70;92.20
16269;DHT22;8242;50.434;8.496;2023-02-15T10:20:03;16.60;92.30
16269;DHT22;8242;50.434;8.496;2023-02-15T10:22:44;16.50;92.30
16269;DHT22;8242;50.434;8.496;2023-02-15T10:25:22;16.40;92.40
16269;DHT22;8242;50.434;8.496;2023-02-15T10:27:55;16.40;92.50
16269;DHT22;8242;50.434;8.496;2023-02-15T10:30:31;16.30;92.50
16269;DHT22;8242;50.434;8.496;2023-02-15T10:33:03;16.20;92.50
16269;DHT22;8242;50.434;8.496;2023-02-15T10:35:36;16.20;92.60
16269;DHT22;8242;50.434;8.496;2023-02-15T10:38:16;16.20;92.70
16269;DHT22;8242;50.434;8.496;2023-02-15T10:40:53;16.10;92.70
16269;DHT22;8242;50.434;8.496;2023-02-15T10:43:38;16.10;92.70
16269;DHT22;8242;50.434;8.496;2023-02-15T10:46:13;16.00;92.70
16269;DHT22;8242;50.434;8.496;2023-02-15T10:49:08;16.00;92.70
16269;DHT22;8242;50.434;8.496;2023-02-15T10:51:47;15.90;92.60
16269;DHT22;8242;50.434;8.496;2023-02-15T10:54:24;15.90;92.70
16269;DHT22;8242;50.434;8.496;2023-02-15T10:57:03;15.90;92.70
16269;DHT22;8242;50.434;8.496;2023-02-15T10:59:42;15.80;92.60
16269;DHT22;8242;50.434;8.496;2023-02-15T11:02:19;15.80;92.60
16269;DHT22;8242;50.434;8.496;2023-02-15T11:04:59;15.90;92.60
16269;DHT22;8242;50.434;8.496;2023-02-15T11:07:33;15.90;92.40
16269;DHT22;8242;50.434;8.496;2023-02-15T11:10:07;16.10;92.30
16269;DHT22;8242;50.434;8.496;2023-02-15T11:12:41;16.30;92.00
16269;DHT22;8242;50.434;8.496;2023-02-15T11:15:16;16.60;91.70
16269;DHT22;8242;50.434;8.496;2023-02-15T11:17:49;16.80;91.50
16269;DHT22;8242;50.434;8.496;2023-02-15T11:20:25;17.00;91.40
16269;DHT22;8242;50.434;8.496;2023-02-15T11:22:54;17.10;91.40
16269;DHT22;8242;50.434;8.496;2023-02-15T11:25:25;17.00;91.40
16269;DHT22;8242;50.434;8.496;2023-02-15T11:27:52;17.00;91.50
16269;DHT22;8242;50.434;8.496;2023-02-15T11:30:22;17.00;91.50
16269;DHT22;8242;50.434;8.496;2023-02-15T11:32:50;16.90;91.60
16269;DHT22;8242;50.434;8.496;2023-02-15T11:35:26;16.80;91.60
16269;DHT22;8242;50.434;8.496;2023-02-15T11:37:57;16.70;91.70
16269;DHT22;8242;50.434;8.496;2023-02-15T11:40:28;16.70;91.80
16269;DHT22;8242;50.434;8.496;2023-02-15T11:42:56;16.60;91.80
16269;DHT22;8242;50.434;8.496;2023-02-15T11:45:27;16.50;91.80
16269;DHT22;8242;50.434;8.496;2023-02-15T11:47:54;16.50;91.90
16269;DHT22;8242;50.434;8.496;2023-02-15T11:50:24;16.40;92.00
16269;DHT22;8242;50.434;8.496;2023-02-15T11:52:52;16.40;92.00
16269;DHT22;8242;50.434;8.496;2023-02-15T11:55:23;16.30;92.10
16269;DHT22;8242;50.434;8.496;2023-02-15T11:57:54;16.30;92.20
16269;DHT22;8242;50.434;8.496;2023-02-15T12:00:31;16.20;92.20
16269;DHT22;8242;50.434;8.496;2023-02-15T12:03:03;16.10;92.20
16269;DHT22;8242;50.434;8.496;2023-02-15T12:05:34;16.10;92.30
16269;DHT22;8242;50.434;8.496;2023-02-15T12:08:08;16.10;92.30
16269;DHT22;8242;50.434;8.496;2023-02-15T12:10:40;16.10;92.30
16269;DHT22;8242;50.434;8.496;2023-02-15T12:13:10;16.10;92.40
16269;DHT22;8242;50.434;8.496;2023-02-15T12:15:38;16.00;92.60
16269;DHT22;8242;50.434;8.496;2023-02-15T12:18:19;16.00;92.60
16269;DHT22;8242;50.434;8.496;2023-02-15T12:20:49;15.90;92.50
16269;DHT22;8242;50.434;8.496;2023-02-15T12:23:16;15.90;92.60
16269;DHT22;8242;50.434;8.496;2023-02-15T12:25:49;15.90;92.60
16269;DHT22;8242;50.434;8.496;2023-02-15T12:28:24;15.90;92.50
16269;DHT22;8242;50.434;8.496;2023-02-15T12:30:53;15.90;92.50
16269;DHT22;8242;50.434;8.496;2023-02-15T12:33:26;15.90;92.40
16269;DHT22;8242;50.434;8.496;2023-02-15T12:35:59;16.10;92.30
16269;DHT22;8242;50.434;8.496;2023-02-15T12:38:27;16.30;92.00
16269;DHT22;8242;50.434;8.496;2023-02-15T12:40:59;16.50;91.70
16269;DHT22;8242;50.434;8.496;2023-02-15T12:43:29;16.70;91.60
16269;DHT22;8242;50.434;8.496;2023-02-15T12:46:22;16.80;91.50
16269;DHT22;8242;50.434;8.496;2023-02-15T12:49:06;16.80;91.40
16269;DHT22;8242;50.434;8.496;2023-02-15T12:51:45;16.80;91.50
16269;DHT22;8242;50.434;8.496;2023-02-15T12:54:30;16.70;91.50
16269;DHT22;8242;50.434;8.496;2023-02-15T12:56:57;16.70;91.60
16269;DHT22;8242;50.434;8.496;2023-02-15T12:59:24;16.70;91.70
16269;DHT22;8242;50.434;8.496;2023-02-15T13:01:52;16.60;91.70
16269;DHT22;8242;50.434;8.496;2023-02-15T13:04:23;16.60;91.70
16269;DHT22;8242;50.434;8.496;2023-02-15T13:06:53;16.50;91.70
16269;DHT22;8242;50.434;8.496;2023-02-15T13:09:25;16.50;91.80
16269;DHT22;8242;50.434;8.496;2023-02-15T13:11:55;16.40;91.80
16269;DHT22;8242;50.434;8.496;2023-02-15T13:14:28;16.40;91.90
16269;DHT22;8242;50.434;8.496;2023-02-15T13:17:00;16.30;91.90
16269;DHT22;8242;50.434;8.496;2023-02-15T13:19:31;16.30;91.90
16269;DHT22;8242;50.434;8.496;2023-02-15T13:22:04;16.30;92.00
16269;DHT22;8242;50.434;8.496;2023-02-15T13:24:35;16.30;92.00
16269;DHT22;8242;50.434;8.496;2023-02-15T13:27:03;16.20;92.00
16269;DHT22;8242;50.434;8.496;2023-02-15T13:29:33;16.20;92.10
16269;DHT22;8242;50.434;8.496;2023-02-15T13:32:06;16.10;92.10
16269;DHT22;8242;50.434;8.496;2023-02-15T13:34:36;16.10;92.20
16269;DHT22;8242;50.434;8.496;2023-02-15T13:37:10;16.10;92.30
16269;DHT22;8242;50.434;8.496;2023-02-15T13:39:41;16.00;92.30
16269;DHT22;8242;50.434;8.496;2023-02-15T13:42:18;16.00;92.40
16269;DHT22;8242;50.434;8.496;2023-02-15T13:44:57;16.00;92.40
16269;DHT22;8242;50.434;8.496;2023-02-15T13:47:32;16.00;92.40
16269;DHT22;8242;50.434;8.496;2023-02-15T13:50:15;16.00;92.60
16269;DHT22;8242;50.434;8.496;2023-02-15T13:52:57;15.90;92.50
16269;DHT22;8242;50.434;8.496;2023-02-15T13:55:38;16.00;92.50
16269;DHT22;8242;50.434;8.496;2023-02-15T13:58:23;16.00;92.40
16269;DHT22;8242;50.434;8.496;2023-02-15T14:01:02;16.10;92.40
16269;DHT22;8242;50.434;8.496;2023-02-15T14:03:58;16.30;92.30
16269;DHT22;8242;50.434;8.496;2023-02-15T14:09:28;16.50;91.90
16269;DHT22;8242;50.434;8.496;2023-02-15T14:12:11;16.60;91.80
16269;DHT22;8242;50.434;8.496;2023-02-15T14:15:00;16.50;91.80
16269;DHT22;8242;50.434;8.496;2023-02-15T14:17:40;16.50;91.90
16269;DHT22;8242;50.434;8.496;2023-02-15T14:20:19;16.40;91.90
16269;DHT22;8242;50.434;8.496;2023-02-15T14:22:53;16.40;92.00
16269;DHT22;8242;50.434;8.496;2023-02-15T14:25:28;16.30;92.00
16269;DHT22;8242;50.434;8.496;2023-02-15T14:28:01;16.30;92.10
16269;DHT22;8242;50.434;8.496;2023-02-15T14:30:32;16.20;92.10
16269;DHT22;8242;50.434;8.496;2023-02-15T14:33:04;16.20;92.20
16269;DHT22;8242;50.434;8.496;2023-02-15T14:35:32;16.20;92.20
16269;DHT22;8242;50.434;8.496;2023-02-15T14:38:04;16.10;92.20
16269;DHT22;8242;50.434;8.496;2023-02-15T14:40:40;16.10;92.20
16269;DHT22;8242;50.434;8.496;2023-02-15T14:43:33;16.10;92.30
16269;DHT22;8242;50.434;8.496;2023-02-15T14:46:07;16.10;92.30
16269;DHT22;8242;50.434;8.496;2023-02-15T14:48:40;16.00;92.20
16269;DHT22;8242;50.434;8.496;2023-02-15T14:51:08;16.00;92.30
16269;DHT22;8242;50.434;8.496;2023-02-15T14:53:37;16.00;92.30
16269;DHT22;8242;50.434;8.496;2023-02-15T14:56:17;16.00;92.30
16269;DHT22;8242;50.434;8.496;2023-02-15T14:59:13;16.00;92.40
16269;DHT22;8242;50.434;8.496;2023-02-15T15:01:41;15.90;92.40
16269;DHT22;8242;50.434;8.496;2023-02-15T15:04:10;15.90;92.60
16269;DHT22;8242;50.434;8.496;2023-02-15T15:06:41;15.90;92.90
16269;DHT22;8242;50.434;8.496;2023-02-15T15:09:12;15.90;93.00
16269;DHT22;8242;50.434;8.496;2023-02-15T15:11:47;16.00;93.00
16269;DHT22;8242;50.434;8.496;2023-02-15T15:14:42;16.20;92.90
16269;DHT22;8242;50.434;8.496;2023-02-15T15:17:14;16.30;92.70
16269;DHT22;8242;50.434;8.496;2023-02-15T15:20:03;16.40;92.50
16269;DHT22;8242;50.434;8.496;2023-02-15T15:22:33;16.60;92.40
16269;DHT22;8242;50.434;8.496;2023-02-15T15:25:01;16.70;92.20
16269;DHT22;8242;50.434;8.496;2023-02-15T15:42:41;16.50;92.40
16269;DHT22;8242;50.434;8.496;2023-02-15T15:48:29;16.50;92.90
16269;DHT22;8242;50.434;8.496;2023-02-15T15:51:00;16.40;92.90
16269;DHT22;8242;50.434;8.496;2023-02-15T15:53:31;16.40;92.90
16269;DHT22;8242;50.434;8.496;2023-02-15T15:56:02;16.30;92.80
16269;DHT22;8242;50.434;8.496;2023-02-15T15:58:30;16.30;92.90
16269;DHT22;8242;50.434;8.496;2023-02-15T16:01:03;16.20;92.90
16269;DHT22;8242;50.434;8.496;2023-02-15T16:03:30;16.20;93.00
16269;DHT22;8242;50.434;8.496;2023-02-15T16:05:57;16.10;93.00
16269;DHT22;8242;50.434;8.496;2023-02-15T16:08:27;16.10;93.10
16269;DHT22;8242;50.434;8.496;2023-02-15T16:10:54;16.10;93.30
16269;DHT22;8242;50.434;8.496;2023-02-15T16:13:21;16.30;93.80
16269;DHT22;8242;50.434;8.496;2023-02-15T16:15:50;16.40;94.00
16269;DHT22;8242;50.434;8.496;2023-02-15T16:18:23;16.30;93.60
16269;DHT22;8242;50.434;8.496;2023-02-15T16:20:52;16.50;93.20
16269;DHT22;8242;50.434;8.496;2023-02-15T16:23:50;17.00;92.60
16269;DHT22;8242;50.434;8.496;2023-02-15T16:26:32;17.50;92.00
16269;DHT22;8242;50.434;8.496;2023-02-15T16:29:14;17.70;91.60
16269;DHT22;8242;50.434;8.496;2023-02-15T16:31:41;17.80;91.40
16269;DHT22;8242;50.434;8.496;2023-02-15T16:34:16;17.90;91.30
16269;DHT22;8242;50.434;8.496;2023-02-15T16:36:46;18.00;91.20